createdAt,value
2019-04-06T00:02:12.316Z,99.90
2019-04-06T00:04:41.518Z,99.90
2019-04-06T00:07:10.396Z,99.90
2019-04-06T00:09:39.184Z,99.90
2019-04-06T00:12:08.084Z,99.90
2019-04-06T00:14:37.671Z,99.90
2019-04-06T00:17:06.525Z,99.90
2019-04-06T00:19:35.535Z,99.90
2019-04-06T00:22:05.142Z,99.90
2019-04-06T00:24:33.961Z,99.90
2019-04-06T00:27:03.080Z,99.90
2019-04-06T00:29:32.254Z,99.90
2019-04-06T00:32:15.027Z,99.90
2019-04-06T00:34:44.065Z,99.90
2019-04-06T00:37:12.927Z,99.90
2019-04-06T00:39:41.707Z,99.90
2019-04-06T00:42:10.855Z,99.90
2019-04-06T00:44:40.205Z,99.90
2019-04-06T00:47:09.233Z,99.90
2019-04-06T00:49:37.999Z,99.90
2019-04-06T00:52:06.799Z,99.90
2019-04-06T00:54:35.897Z,99.90
2019-04-06T00:57:04.948Z,99.90
2019-04-06T00:59:33.925Z,99.90
2019-04-06T01:02:02.716Z,99.90
2019-04-06T01:04:31.610Z,99.90
2019-04-06T01:07:00.463Z,99.90
2019-04-06T01:09:29.258Z,99.90
2019-04-06T01:11:58.334Z,99.90
2019-04-06T01:14:27.213Z,99.90
2019-04-06T01:16:56.126Z,99.90
2019-04-06T01:19:25.301Z,99.90
2019-04-06T01:21:54.189Z,99.90
2019-04-06T01:24:23.740Z,99.90
2019-04-06T01:26:52.871Z,99.90
2019-04-06T01:29:21.666Z,99.90
2019-04-06T01:31:50.593Z,99.90
2019-04-06T01:34:19.419Z,99.90
2019-04-06T01:36:48.206Z,99.90
2019-04-06T01:39:17.025Z,99.90
2019-04-06T01:41:45.917Z,99.90
2019-04-06T01:44:14.905Z,99.90
2019-04-06T01:46:44.167Z,99.90
2019-04-06T01:49:12.983Z,99.90
2019-04-06T01:51:42.158Z,99.90
2019-04-06T01:54:10.962Z,99.90
2019-04-06T01:56:39.836Z,99.90
2019-04-06T01:59:08.877Z,99.90
2019-04-06T02:01:45.044Z,99.90
2019-04-06T02:04:14.036Z,99.90
2019-04-06T02:06:43.189Z,99.90
2019-04-06T02:09:12.073Z,99.90
2019-04-06T02:11:40.898Z,99.90
2019-04-06T02:14:09.750Z,99.90
2019-04-06T02:16:38.632Z,99.90
2019-04-06T02:19:07.693Z,99.90
2019-04-06T02:21:36.509Z,99.90
2019-04-06T02:24:05.438Z,99.90
2019-04-06T02:26:34.308Z,99.90
2019-04-06T02:29:03.430Z,99.90
2019-04-06T02:32:06.805Z,99.90
2019-04-06T02:35:03.862Z,99.90
2019-04-06T02:37:48.850Z,99.90
2019-04-06T02:40:24.494Z,99.90
2019-04-06T02:42:58.424Z,99.90
2019-04-06T02:45:27.373Z,99.90
2019-04-06T02:47:56.555Z,99.90
2019-04-06T02:50:25.527Z,99.90
2019-04-06T02:52:54.765Z,99.90
2019-04-06T02:55:23.905Z,99.90
2019-04-06T02:57:52.981Z,99.90
2019-04-06T03:00:22.190Z,99.90
2019-04-06T03:02:51.438Z,99.90
2019-04-06T03:05:20.667Z,99.90
2019-04-06T03:07:49.605Z,99.90
2019-04-06T03:10:18.484Z,99.90
2019-04-06T03:12:47.409Z,99.90
2019-04-06T03:15:16.493Z,99.90
2019-04-06T03:17:45.401Z,99.90
2019-04-06T03:20:14.569Z,99.90
2019-04-06T03:22:43.830Z,99.90
2019-04-06T03:25:12.890Z,99.90
2019-04-06T03:27:41.782Z,99.90
2019-04-06T03:30:11.277Z,99.90
2019-04-06T03:32:40.493Z,99.90
2019-04-06T03:35:09.469Z,99.90
2019-04-06T03:37:38.545Z,99.90
2019-04-06T03:40:07.971Z,99.90
2019-04-06T03:42:37.076Z,99.90
2019-04-06T03:45:07.032Z,99.90
2019-04-06T03:47:36.173Z,99.90
2019-04-06T03:50:05.828Z,99.90
2019-04-06T03:52:35.005Z,99.90
2019-04-06T03:55:04.326Z,99.90
2019-04-06T03:57:33.697Z,99.90
2019-04-06T04:00:02.999Z,99.90
2019-04-06T04:02:31.956Z,99.90
2019-04-06T04:05:00.717Z,99.90
2019-04-06T04:07:29.490Z,99.90
2019-04-06T04:09:58.297Z,99.90
2019-04-06T04:12:27.232Z,99.90
2019-04-06T04:14:56.309Z,99.90
2019-04-06T04:17:25.462Z,99.90
2019-04-06T04:19:54.708Z,99.90
2019-04-06T04:22:23.517Z,99.90
2019-04-06T04:24:52.914Z,99.90
2019-04-06T04:27:28.262Z,99.90
2019-04-06T04:29:52.552Z,99.90
2019-04-06T04:32:21.375Z,99.90
2019-04-06T04:34:50.289Z,99.90
2019-04-06T04:37:19.326Z,99.90
2019-04-06T04:39:48.143Z,99.90
2019-04-06T04:42:17.177Z,99.90
2019-04-06T04:44:46.142Z,99.90
2019-04-06T04:47:15.069Z,99.90
2019-04-06T04:49:43.902Z,99.90
2019-04-06T04:52:12.722Z,99.90
2019-04-06T04:54:41.803Z,99.90
2019-04-06T04:57:10.674Z,99.90
2019-04-06T04:59:39.800Z,99.90
2019-04-06T05:02:09.433Z,99.90
2019-04-06T05:04:38.227Z,99.90
2019-04-06T05:07:07.065Z,99.90
2019-04-06T05:09:35.873Z,99.90
2019-04-06T05:12:05.178Z,99.90
2019-04-06T05:14:59.650Z,99.90
2019-04-06T05:17:29.175Z,99.90
2019-04-06T05:19:58.578Z,99.90
2019-04-06T05:22:27.927Z,99.90
2019-04-06T05:24:57.149Z,99.90
2019-04-06T05:27:26.268Z,99.90
2019-04-06T05:29:55.203Z,99.90
2019-04-06T05:32:24.024Z,99.90
2019-04-06T05:34:53.100Z,99.90
2019-04-06T05:37:22.201Z,99.90
2019-04-06T05:39:51.072Z,99.90
2019-04-06T05:42:20.116Z,99.90
2019-04-06T05:44:48.966Z,99.90
2019-04-06T05:47:17.845Z,99.90
2019-04-06T05:49:47.070Z,99.90
2019-04-06T05:52:16.211Z,99.90
2019-04-06T05:54:45.039Z,99.90
2019-04-06T05:57:13.831Z,99.90
2019-04-06T05:59:42.728Z,99.90
2019-04-06T06:02:11.889Z,99.90
2019-04-06T06:04:41.152Z,99.90
2019-04-06T06:07:10.579Z,99.90
2019-04-06T06:09:39.394Z,99.90
2019-04-06T06:12:10.593Z,99.90
2019-04-06T06:14:39.418Z,99.90
2019-04-06T06:17:08.207Z,99.90
2019-04-06T06:19:37.393Z,99.90
2019-04-06T06:22:06.465Z,99.90
2019-04-06T06:24:35.244Z,99.90
2019-04-06T06:29:32.429Z,99.90
2019-04-06T06:32:01.472Z,99.90
2019-04-06T06:34:30.340Z,99.90
2019-04-06T06:36:59.199Z,99.90
2019-04-06T06:39:28.097Z,99.90
2019-04-06T06:41:56.860Z,99.90
2019-04-06T06:44:25.706Z,99.90
2019-04-06T06:46:54.480Z,99.90
2019-04-06T06:49:23.574Z,99.90
2019-04-06T06:51:52.360Z,99.90
2019-04-06T06:54:21.695Z,99.90
2019-04-06T06:56:51.040Z,99.90
2019-04-06T06:59:19.876Z,99.90
2019-04-06T07:01:48.906Z,99.90
2019-04-06T07:04:17.788Z,99.90
2019-04-06T07:06:46.813Z,99.90
2019-04-06T07:09:15.671Z,99.90
2019-04-06T07:11:44.460Z,99.90
2019-04-06T07:14:13.415Z,99.90
2019-04-06T07:16:42.544Z,98.80
2019-04-06T07:19:11.447Z,98.60
2019-04-06T07:21:40.329Z,98.60
2019-04-06T07:24:09.160Z,97.50
2019-04-06T07:26:40.605Z,95.90
2019-04-06T07:29:08.549Z,94.50
2019-04-06T07:31:37.399Z,93.70
2019-04-06T07:34:11.079Z,93.40
2019-04-06T07:36:39.893Z,92.20
2019-04-06T07:39:09.400Z,91.40
2019-04-06T07:44:07.699Z,88.00
2019-04-06T07:46:36.804Z,87.30
2019-04-06T07:49:10.305Z,86.70
2019-04-06T07:51:39.269Z,84.60
2019-04-06T07:54:08.316Z,81.50
2019-04-06T07:56:37.883Z,78.20
2019-04-06T07:59:07.120Z,76.20
2019-04-06T08:01:36.345Z,75.80
2019-04-06T08:04:05.228Z,74.90
2019-04-06T08:06:34.448Z,72.30
2019-04-06T08:09:06.591Z,70.50
2019-04-06T08:11:37.185Z,70.90
2019-04-06T08:14:06.146Z,68.70
2019-04-06T08:16:35.612Z,68.80
2019-04-06T08:19:04.660Z,67.20
2019-04-06T08:21:33.846Z,67.00
2019-04-06T08:24:03.153Z,68.40
2019-04-06T08:26:32.275Z,65.90
2019-04-06T08:29:02.427Z,64.30
2019-04-06T08:31:31.765Z,63.90
2019-04-06T08:34:01.140Z,61.30
2019-04-06T08:36:30.181Z,60.20
2019-04-06T08:38:59.546Z,58.90
2019-04-06T08:41:28.589Z,58.30
2019-04-06T08:43:57.997Z,58.80
2019-04-06T08:46:26.851Z,59.60
2019-04-06T08:48:55.632Z,59.00
2019-04-06T08:51:24.439Z,59.20
2019-04-06T08:53:53.246Z,59.30
2019-04-06T08:56:22.085Z,59.30
2019-04-06T08:58:51.175Z,59.40
2019-04-06T09:01:21.278Z,58.90
2019-04-06T09:03:50.155Z,58.40
2019-04-06T09:06:19.160Z,56.80
2019-04-06T09:08:48.036Z,55.70
2019-04-06T09:11:17.832Z,55.10
2019-04-06T09:13:46.897Z,55.70
2019-04-06T09:16:16.074Z,54.30
2019-04-06T09:18:45.173Z,54.50
2019-04-06T09:21:14.987Z,54.40
2019-04-06T09:23:43.801Z,54.70
2019-04-06T09:26:13.049Z,53.90
2019-04-06T09:28:42.308Z,53.60
2019-04-06T09:31:11.234Z,53.50
2019-04-06T09:33:40.073Z,54.20
2019-04-06T09:36:09.447Z,53.90
2019-04-06T09:38:38.684Z,53.20
2019-04-06T09:41:08.121Z,52.30
2019-04-06T09:43:37.597Z,52.10
2019-04-06T09:46:23.173Z,52.70
2019-04-06T09:49:07.812Z,52.60
2019-04-06T09:52:08.485Z,51.90
2019-04-06T09:55:05.499Z,52.00
2019-04-06T09:57:39.911Z,50.10
2019-04-06T10:00:20.329Z,51.10
2019-04-06T10:03:08.238Z,50.10
2019-04-06T10:05:43.256Z,50.60
2019-04-06T10:08:49.737Z,50.60
2019-04-06T10:11:37.873Z,50.80
2019-04-06T10:14:25.888Z,50.10
2019-04-06T10:17:26.393Z,50.70
2019-04-06T10:20:26.382Z,50.90
2019-04-06T10:23:13.069Z,51.30
2019-04-06T10:25:52.082Z,50.90
2019-04-06T10:28:39.001Z,51.40
2019-04-06T10:31:42.089Z,52.00
2019-04-06T10:34:29.162Z,51.90
2019-04-06T10:37:17.133Z,48.90
2019-04-06T10:39:51.705Z,48.60
2019-04-06T10:42:37.806Z,49.60
2019-04-06T10:45:13.112Z,51.20
2019-04-06T10:48:01.259Z,52.00
2019-04-06T10:50:49.479Z,51.20
2019-04-06T10:53:31.652Z,51.00
2019-04-06T10:56:18.471Z,51.50
2019-04-06T10:58:56.999Z,52.40
2019-04-06T11:01:43.700Z,53.80
2019-04-06T11:04:20.497Z,53.40
2019-04-06T11:07:07.626Z,53.20
2019-04-06T11:10:01.761Z,52.80
2019-04-06T11:12:50.342Z,52.80
2019-04-06T11:15:37.478Z,53.50
2019-04-06T11:18:19.129Z,54.00
2019-04-06T11:21:15.674Z,54.30
2019-04-06T11:24:19.573Z,55.00
2019-04-06T11:27:10.825Z,55.60
2019-04-06T11:29:57.547Z,56.30
2019-04-06T11:32:48.599Z,57.30
2019-04-06T11:35:45.962Z,57.60
2019-04-06T11:38:27.743Z,58.10
2019-04-06T11:41:17.821Z,58.80
2019-04-06T11:44:17.829Z,59.70
2019-04-06T11:47:09.119Z,59.20
2019-04-06T11:49:46.907Z,57.90
2019-04-06T11:52:38.553Z,56.80
2019-04-06T11:55:17.188Z,56.50
2019-04-06T11:58:08.062Z,55.60
2019-04-06T12:00:47.702Z,55.80
2019-04-06T12:03:41.921Z,55.80
2019-04-06T12:06:22.010Z,55.30
2019-04-06T12:09:09.880Z,55.50
2019-04-06T12:11:46.726Z,55.00
2019-04-06T12:14:40.737Z,54.30
2019-04-06T12:17:32.196Z,54.60
2019-04-06T12:20:19.025Z,54.80
2019-04-06T12:23:05.848Z,54.80
2019-04-06T12:25:56.999Z,55.70
2019-04-06T12:28:47.074Z,55.00
2019-04-06T12:31:44.704Z,55.10
2019-04-06T12:34:38.531Z,55.90
2019-04-06T12:37:29.489Z,56.00
2019-04-06T12:40:16.322Z,56.50
2019-04-06T12:43:14.062Z,56.60
2019-04-06T12:45:59.524Z,56.50
2019-04-06T12:48:39.392Z,57.80
2019-04-06T12:51:30.598Z,56.90
2019-04-06T12:54:18.272Z,55.70
2019-04-06T12:57:03.118Z,54.60
2019-04-06T12:59:57.347Z,53.20
2019-04-06T13:02:35.981Z,53.80
2019-04-06T13:05:23.661Z,55.30
2019-04-06T13:08:20.994Z,55.30
2019-04-06T13:10:56.893Z,56.10
2019-04-06T13:13:39.013Z,55.70
2019-04-06T13:16:17.237Z,54.90
2019-04-06T13:18:53.687Z,54.30
2019-04-06T13:21:31.101Z,53.70
2019-04-06T13:24:07.536Z,54.40
2019-04-06T13:26:43.923Z,53.60
2019-04-06T13:29:30.576Z,54.30
2019-04-06T13:32:24.956Z,52.70
2019-04-06T13:35:03.946Z,53.20
2019-04-06T13:37:50.802Z,52.00
2019-04-06T13:40:34.933Z,51.90
2019-04-06T13:43:11.129Z,52.10
2019-04-06T13:45:52.425Z,52.30
2019-04-06T13:48:31.277Z,51.60
2019-04-06T13:51:23.329Z,51.10
2019-04-06T13:54:14.707Z,49.30
2019-04-06T13:56:50.284Z,48.40
2019-04-06T13:59:34.789Z,46.10
2019-04-06T14:02:17.168Z,46.10
2019-04-06T14:05:04.144Z,45.70
2019-04-06T14:08:01.582Z,45.50
2019-04-06T14:10:53.264Z,46.30
2019-04-06T14:13:29.228Z,46.70
2019-04-06T14:16:29.853Z,44.30
2019-04-06T14:19:27.025Z,43.40
2019-04-06T14:22:06.376Z,42.90
2019-04-06T14:24:43.809Z,41.60
2019-04-06T14:27:47.019Z,40.80
2019-04-06T14:30:50.456Z,40.70
2019-04-06T14:33:37.203Z,42.00
2019-04-06T14:36:19.204Z,43.70
2019-04-06T14:38:58.870Z,44.50
2019-04-06T14:41:49.961Z,45.10
2019-04-06T14:44:37.603Z,45.90
2019-04-06T14:47:27.477Z,46.10
2019-04-06T14:50:18.721Z,45.50
2019-04-06T14:53:09.432Z,45.80
2019-04-06T14:55:42.885Z,45.80
2019-04-06T14:58:36.241Z,44.50
2019-04-06T15:01:11.880Z,44.20
2019-04-06T15:04:06.186Z,44.50
2019-04-06T15:07:10.800Z,45.50
2019-04-06T15:09:38.903Z,45.90
2019-04-06T15:12:14.005Z,45.50
2019-04-06T15:15:05.161Z,45.80
2019-04-06T15:17:47.484Z,46.90
2019-04-06T15:20:38.607Z,47.40
2019-04-06T15:23:15.611Z,47.80
2019-04-06T15:26:09.933Z,48.30
2019-04-06T15:28:53.999Z,49.60
2019-04-06T15:31:48.472Z,50.80
2019-04-06T15:34:34.875Z,51.10
2019-04-06T15:37:10.978Z,51.40
2019-04-06T15:39:58.604Z,51.20
2019-04-06T15:43:05.614Z,51.60
2019-04-06T15:45:47.185Z,51.90
2019-04-06T15:48:39.901Z,52.50
2019-04-06T15:51:27.030Z,53.10
2019-04-06T15:54:18.237Z,53.10
2019-04-06T15:57:09.737Z,53.70
2019-04-06T15:59:50.446Z,54.20
2019-04-06T16:02:29.992Z,54.50
2019-04-06T16:05:15.534Z,55.00
2019-04-06T16:08:02.581Z,55.40
2019-04-06T16:10:48.076Z,55.80
2019-04-06T16:13:35.981Z,56.70
2019-04-06T16:16:12.079Z,57.00
2019-04-06T16:19:09.209Z,57.20
2019-04-06T16:21:51.168Z,57.70
2019-04-06T16:25:21.909Z,57.90
2019-04-06T16:28:10.266Z,58.40
2019-04-06T16:30:50.569Z,58.60
2019-04-06T16:33:34.451Z,58.80
2019-04-06T16:36:22.455Z,59.30
2019-04-06T16:39:13.484Z,59.90
2019-04-06T16:42:01.429Z,60.10
2019-04-06T16:44:41.280Z,60.20
2019-04-06T16:47:32.248Z,60.50
2019-04-06T16:50:20.661Z,61.10
2019-04-06T16:53:08.141Z,61.50
2019-04-06T16:56:08.329Z,62.60
2019-04-06T16:58:47.911Z,62.80
2019-04-06T17:01:36.846Z,63.70
2019-04-06T17:04:18.468Z,65.40
2019-04-06T17:07:11.260Z,65.10
2019-04-06T17:09:48.011Z,65.30
2019-04-06T17:12:30.620Z,65.90
2019-04-06T17:15:17.228Z,65.50
2019-04-06T17:18:12.247Z,65.30
2019-04-06T17:20:50.438Z,65.30
2019-04-06T17:23:53.758Z,65.70
2019-04-06T17:26:45.552Z,65.80
2019-04-06T17:29:27.529Z,66.00
2019-04-06T17:32:05.197Z,65.90
2019-04-06T17:34:54.309Z,66.20
2019-04-06T17:37:48.453Z,66.50
2019-04-06T17:40:24.206Z,66.80
2019-04-06T17:43:11.178Z,67.60
2019-04-06T17:45:56.547Z,68.70
2019-04-06T17:48:43.352Z,69.60
2019-04-06T17:51:43.492Z,71.00
2019-04-06T17:54:31.765Z,72.10
2019-04-06T17:57:16.448Z,73.70
2019-04-06T18:00:03.429Z,75.00
2019-04-06T18:03:00.566Z,76.70
2019-04-06T18:05:48.521Z,78.10
2019-04-06T18:08:48.958Z,80.00
2019-04-06T18:11:27.151Z,81.80
2019-04-06T18:13:56.329Z,83.40
2019-04-06T18:16:29.253Z,85.40
2019-04-06T18:18:58.777Z,87.20
2019-04-06T18:21:27.906Z,88.30
2019-04-06T18:23:56.874Z,89.20
2019-04-06T18:26:25.763Z,90.10
2019-04-06T18:28:54.554Z,90.40
2019-04-06T18:31:31.325Z,90.80
2019-04-06T18:34:01.437Z,90.80
2019-04-06T18:36:50.436Z,91.20
2019-04-06T18:39:19.626Z,92.00
2019-04-06T18:41:48.824Z,92.70
2019-04-06T18:44:17.595Z,93.10
2019-04-06T18:46:46.456Z,93.50
2019-04-06T18:49:15.345Z,94.10
2019-04-06T18:51:44.418Z,94.50
2019-04-06T18:54:13.421Z,95.10
2019-04-06T18:56:42.338Z,96.20
2019-04-06T18:59:11.168Z,96.30
2019-04-06T19:01:40.401Z,96.20
2019-04-06T19:04:10.387Z,96.30
2019-04-06T19:06:40.007Z,96.60
2019-04-06T19:09:20.516Z,96.80
2019-04-06T19:11:40.824Z,97.20
2019-04-06T19:14:10.500Z,97.40
2019-04-06T19:16:39.490Z,97.60
2019-04-06T19:19:09.154Z,97.80
2019-04-06T19:21:38.721Z,98.10
2019-04-06T19:24:07.757Z,98.60
2019-04-06T19:26:37.825Z,98.80
2019-04-06T19:29:07.648Z,98.80
2019-04-06T19:31:36.494Z,99.00
2019-04-06T19:34:05.969Z,99.20
2019-04-06T19:36:35.258Z,99.40
2019-04-06T19:39:07.684Z,99.60
2019-04-06T19:41:37.057Z,99.90
2019-04-06T19:44:05.986Z,99.90
2019-04-06T19:46:35.180Z,99.90
2019-04-06T19:49:04.217Z,99.90
2019-04-06T19:51:33.604Z,99.90
2019-04-06T19:54:04.689Z,99.90
2019-04-06T19:56:33.283Z,99.90
2019-04-06T19:59:02.899Z,99.90
2019-04-06T20:01:32.267Z,99.90
2019-04-06T20:04:01.463Z,99.90
2019-04-06T20:06:30.730Z,99.90
2019-04-06T20:08:59.629Z,99.90
2019-04-06T20:11:28.584Z,99.90
2019-04-06T20:13:58.757Z,99.90
2019-04-06T20:16:27.597Z,99.90
2019-04-06T20:18:57.092Z,99.90
2019-04-06T20:23:56.174Z,99.90
2019-04-06T20:26:25.513Z,99.90
2019-04-06T20:28:54.877Z,99.90
2019-04-06T20:31:24.120Z,99.90
2019-04-06T20:33:54.076Z,99.90
2019-04-06T20:36:23.234Z,99.90
2019-04-06T20:38:52.630Z,99.90
2019-04-06T20:41:22.134Z,99.90
2019-04-06T20:43:51.097Z,99.90
2019-04-06T20:46:20.604Z,99.90
2019-04-06T20:48:50.136Z,99.90
2019-04-06T20:51:18.984Z,99.90
2019-04-06T20:53:47.822Z,99.90
2019-04-06T20:56:17.121Z,99.90
2019-04-06T20:58:45.948Z,99.90
2019-04-06T21:01:14.809Z,99.90
2019-04-06T21:03:43.675Z,99.90
2019-04-06T21:06:13.397Z,99.90
2019-04-06T21:08:42.386Z,99.90
2019-04-06T21:11:11.229Z,99.90
2019-04-06T21:13:40.802Z,99.90
2019-04-06T21:16:10.218Z,99.90
2019-04-06T21:18:39.932Z,99.90
2019-04-06T21:21:08.802Z,99.90
2019-04-06T21:23:38.399Z,99.90
2019-04-06T21:26:07.334Z,99.90
2019-04-06T21:28:36.472Z,99.90
2019-04-06T21:31:05.332Z,99.90
2019-04-06T21:33:34.126Z,99.90
2019-04-06T21:36:03.271Z,99.90
2019-04-06T21:38:32.460Z,99.90
2019-04-06T21:41:01.230Z,99.90
2019-04-06T21:43:30.098Z,99.90
2019-04-06T21:45:58.942Z,99.90
2019-04-06T21:48:28.040Z,99.90
2019-04-06T21:50:57.242Z,99.90
2019-04-06T21:53:26.389Z,99.90
2019-04-06T21:56:01.687Z,99.90
2019-04-06T21:58:27.061Z,99.90
2019-04-06T22:00:57.899Z,99.90
2019-04-06T22:03:27.001Z,99.90
2019-04-06T22:05:56.669Z,99.90
2019-04-06T22:08:25.933Z,99.90
2019-04-06T22:10:54.995Z,99.90
2019-04-06T22:13:24.945Z,99.90
2019-04-06T22:15:53.964Z,99.90
2019-04-06T22:18:22.841Z,99.90
2019-04-06T22:20:52.001Z,99.90
2019-04-06T22:23:20.908Z,99.90
2019-04-06T22:25:50.358Z,99.90
2019-04-06T22:28:19.992Z,99.90
2019-04-06T22:30:48.776Z,99.90
2019-04-06T22:33:17.577Z,99.90
2019-04-06T22:35:46.440Z,99.90
2019-04-06T22:38:15.753Z,99.90
2019-04-06T22:40:45.135Z,99.90
2019-04-06T22:43:14.630Z,99.90
2019-04-06T22:45:43.797Z,99.90
2019-04-06T22:48:13.689Z,99.90
2019-04-06T22:50:42.998Z,99.90
2019-04-06T22:53:12.266Z,99.90
2019-04-06T22:55:41.411Z,99.90
2019-04-06T22:58:10.361Z,99.90
2019-04-06T23:00:44.294Z,99.90
2019-04-06T23:03:43.715Z,99.90
2019-04-06T23:06:16.327Z,99.90
2019-04-06T23:08:45.223Z,99.90
2019-04-06T23:11:14.060Z,99.90
2019-04-06T23:13:43.742Z,99.90
2019-04-06T23:16:12.831Z,99.90
2019-04-06T23:18:42.724Z,99.90
2019-04-06T23:21:12.027Z,99.90
2019-04-06T23:23:40.885Z,99.90
2019-04-06T23:26:10.054Z,99.90
2019-04-06T23:28:38.950Z,99.90
2019-04-06T23:31:08.280Z,99.90
2019-04-06T23:33:37.991Z,99.90
2019-04-06T23:36:07.771Z,99.90
2019-04-06T23:38:37.339Z,99.90
2019-04-06T23:41:06.757Z,99.90
2019-04-06T23:43:35.927Z,99.90
2019-04-06T23:46:05.053Z,99.90
2019-04-06T23:48:33.856Z,99.90
2019-04-06T23:51:03.014Z,99.90
2019-04-06T23:53:31.845Z,99.90
2019-04-06T23:56:01.202Z,99.90
2019-04-06T23:58:30.057Z,99.90
